createdAt,value
2022-12-28T00:02:13.973Z,75.77
2022-12-28T00:04:40.496Z,75.95
2022-12-28T00:07:07.447Z,76.11
2022-12-28T00:09:33.915Z,75.91
2022-12-28T00:12:00.522Z,75.95
2022-12-28T00:14:27.593Z,75.86
2022-12-28T00:16:54.205Z,76.16
2022-12-28T00:19:20.634Z,75.99
2022-12-28T00:21:47.116Z,76.29
2022-12-28T00:24:20.641Z,76.45
2022-12-28T00:26:47.152Z,76.32
2022-12-28T00:29:13.679Z,76.08
2022-12-28T00:31:40.131Z,76.33
2022-12-28T00:34:06.814Z,77.28
2022-12-28T00:37:08.701Z,78.51
2022-12-28T00:39:20.283Z,77.95
2022-12-28T00:41:46.763Z,77.83
2022-12-28T00:44:13.223Z,77.97
2022-12-28T00:46:39.705Z,77.80
2022-12-28T00:49:06.167Z,78.18
2022-12-28T00:51:32.568Z,78.08
2022-12-28T00:53:59.350Z,77.74
2022-12-28T00:56:25.871Z,78.11
2022-12-28T00:58:55.871Z,78.01
2022-12-28T01:01:22.620Z,78.01
2022-12-28T01:03:49.243Z,78.26
2022-12-28T01:06:16.974Z,77.74
2022-12-28T01:08:43.434Z,77.64
2022-12-28T01:11:23.044Z,77.38
2022-12-28T01:13:49.731Z,77.07
2022-12-28T01:16:17.046Z,77.49
2022-12-28T01:18:44.105Z,77.09
2022-12-28T01:21:14.915Z,77.76
2022-12-28T01:23:41.329Z,77.62
2022-12-28T01:26:07.994Z,77.73
2022-12-28T01:28:34.485Z,77.34
2022-12-28T01:31:07.866Z,77.40
2022-12-28T01:33:34.319Z,77.99
2022-12-28T01:36:05.597Z,77.90
2022-12-28T01:38:32.011Z,78.19
2022-12-28T01:40:58.479Z,77.89
2022-12-28T01:43:44.223Z,78.17
2022-12-28T01:46:20.784Z,77.46
2022-12-28T01:48:50.354Z,77.23
2022-12-28T01:51:17.588Z,77.51
2022-12-28T01:53:44.058Z,77.24
2022-12-28T01:56:10.526Z,77.00
2022-12-28T01:58:37.201Z,77.67
2022-12-28T02:01:03.818Z,77.39
2022-12-28T02:03:31.313Z,77.48
2022-12-28T02:05:58.235Z,77.45
2022-12-28T02:08:27.682Z,77.88
2022-12-28T02:10:54.087Z,77.77
2022-12-28T02:13:20.744Z,77.52
2022-12-28T02:15:47.257Z,77.80
2022-12-28T02:18:14.228Z,78.02
2022-12-28T02:20:55.903Z,77.83
2022-12-28T02:23:31.608Z,78.06
2022-12-28T02:26:16.951Z,77.82
2022-12-28T02:29:02.171Z,78.00
2022-12-28T02:31:41.688Z,78.19
2022-12-28T02:34:14.343Z,78.71
2022-12-28T02:36:42.100Z,78.65
2022-12-28T02:39:09.390Z,78.33
2022-12-28T02:41:35.941Z,78.72
2022-12-28T02:44:02.413Z,78.34
2022-12-28T02:46:47.965Z,78.24
2022-12-28T02:49:37.120Z,78.14
2022-12-28T02:52:22.402Z,78.01
2022-12-28T02:55:10.722Z,78.24
2022-12-28T02:57:37.167Z,78.22
2022-12-28T03:00:05.110Z,78.16
2022-12-28T03:02:31.698Z,77.76
2022-12-28T03:05:41.483Z,77.81
2022-12-28T03:08:20.550Z,77.64
2022-12-28T03:10:50.356Z,78.02
2022-12-28T03:13:43.389Z,78.35
2022-12-28T03:16:18.140Z,78.17
2022-12-28T03:19:03.736Z,78.18
2022-12-28T03:21:48.801Z,78.29
2022-12-28T03:24:33.938Z,78.10
2022-12-28T03:27:19.109Z,78.23
2022-12-28T03:30:06.419Z,78.01
2022-12-28T03:32:32.858Z,78.55
2022-12-28T03:34:59.329Z,78.83
2022-12-28T03:37:25.832Z,78.95
2022-12-28T03:40:00.171Z,78.83
2022-12-28T03:42:46.276Z,78.74
2022-12-28T03:45:46.131Z,78.85
2022-12-28T03:48:07.191Z,78.96
2022-12-28T03:50:40.122Z,79.14
2022-12-28T03:53:06.996Z,78.38
2022-12-28T03:55:33.526Z,78.49
2022-12-28T03:57:59.982Z,78.70
2022-12-28T04:00:26.430Z,78.67
2022-12-28T04:02:53.193Z,79.00
2022-12-28T04:05:21.474Z,78.68
2022-12-28T04:07:47.903Z,79.02
2022-12-28T04:10:14.386Z,78.56
2022-12-28T04:12:40.849Z,78.42
2022-12-28T04:15:07.506Z,79.16
2022-12-28T04:17:34.016Z,78.91
2022-12-28T04:20:00.584Z,78.53
2022-12-28T04:22:27.177Z,79.08
2022-12-28T04:24:53.642Z,78.86
2022-12-28T04:27:20.111Z,79.34
2022-12-28T04:29:46.578Z,78.69
2022-12-28T04:32:13.037Z,78.92
2022-12-28T04:34:44.739Z,79.12
2022-12-28T04:37:14.630Z,79.10
2022-12-28T04:39:55.690Z,79.27
2022-12-28T04:42:23.998Z,79.06
2022-12-28T04:44:50.443Z,79.13
2022-12-28T04:47:16.914Z,79.16
2022-12-28T04:49:43.421Z,78.93
2022-12-28T04:52:09.881Z,78.73
2022-12-28T04:54:36.318Z,78.53
2022-12-28T04:57:02.922Z,78.65
2022-12-28T04:59:29.343Z,78.45
2022-12-28T05:01:55.886Z,78.48
2022-12-28T05:04:22.510Z,78.53
2022-12-28T05:06:48.979Z,78.80
2022-12-28T05:09:15.498Z,78.50
2022-12-28T05:11:41.981Z,79.03
2022-12-28T05:14:08.433Z,78.48
2022-12-28T05:16:34.948Z,78.50
2022-12-28T05:19:01.483Z,78.59
2022-12-28T05:21:28.111Z,78.79
2022-12-28T05:23:54.754Z,79.15
2022-12-28T05:26:22.051Z,78.99
2022-12-28T05:28:48.542Z,79.62
2022-12-28T05:31:15.859Z,79.81
2022-12-28T05:33:42.541Z,79.87
2022-12-28T05:36:09.044Z,78.99
2022-12-28T05:38:35.590Z,78.92
2022-12-28T05:41:09.021Z,79.28
2022-12-28T05:43:35.569Z,78.90
2022-12-28T05:46:05.955Z,79.02
2022-12-28T05:48:33.282Z,78.80
2022-12-28T05:51:00.682Z,78.89
2022-12-28T05:53:28.140Z,79.00
2022-12-28T05:55:59.652Z,79.96
2022-12-28T05:58:26.094Z,79.83
2022-12-28T06:00:52.525Z,79.84
2022-12-28T06:03:19.071Z,79.59
2022-12-28T06:05:45.577Z,80.23
2022-12-28T06:08:12.083Z,80.00
2022-12-28T06:10:38.622Z,79.38
2022-12-28T06:13:05.071Z,79.66
2022-12-28T06:15:31.512Z,79.55
2022-12-28T06:17:57.942Z,79.02
2022-12-28T06:20:24.394Z,79.10
2022-12-28T06:22:50.844Z,78.79
2022-12-28T06:25:17.337Z,78.70
2022-12-28T06:27:43.859Z,78.64
2022-12-28T06:30:10.683Z,78.21
2022-12-28T06:32:37.160Z,77.94
2022-12-28T06:35:03.802Z,78.41
2022-12-28T06:37:30.245Z,78.16
2022-12-28T06:39:56.736Z,78.09
2022-12-28T06:42:23.195Z,77.69
2022-12-28T06:44:49.724Z,77.69
2022-12-28T06:47:16.200Z,77.46
2022-12-28T06:49:42.632Z,77.99
2022-12-28T06:52:09.064Z,77.70
2022-12-28T06:54:35.565Z,77.61
2022-12-28T06:57:02.376Z,77.97
2022-12-28T06:59:28.828Z,77.39
2022-12-28T07:01:55.599Z,77.46
2022-12-28T07:04:22.103Z,77.31
2022-12-28T07:06:48.617Z,77.24
2022-12-28T07:09:15.549Z,77.30
2022-12-28T07:11:42.431Z,76.91
2022-12-28T07:14:08.925Z,76.86
2022-12-28T07:19:00.872Z,76.78
2022-12-28T07:21:31.729Z,76.61
2022-12-28T07:23:58.329Z,76.65
2022-12-28T07:26:25.971Z,75.80
2022-12-28T07:28:53.010Z,75.62
2022-12-28T07:31:23.482Z,75.12
2022-12-28T07:33:50.486Z,75.18
2022-12-28T07:36:17.644Z,74.55
2022-12-28T07:38:44.420Z,74.26
2022-12-28T07:41:14.775Z,73.75
2022-12-28T07:43:41.289Z,73.58
2022-12-28T07:46:11.975Z,72.80
2022-12-28T07:48:38.474Z,72.34
2022-12-28T07:51:15.043Z,71.52
2022-12-28T07:53:41.922Z,71.19
2022-12-28T07:56:08.449Z,70.38
2022-12-28T07:58:34.990Z,69.80
2022-12-28T08:01:05.503Z,69.71
2022-12-28T08:03:32.776Z,69.94
2022-12-28T08:06:09.538Z,69.24
2022-12-28T08:08:36.594Z,68.82
2022-12-28T08:14:31.193Z,67.48
2022-12-28T08:16:57.732Z,67.86
2022-12-28T08:19:24.307Z,67.37
2022-12-28T08:21:50.721Z,67.13
2022-12-28T08:24:18.001Z,67.27
2022-12-28T08:26:44.571Z,66.45
2022-12-28T08:29:12.494Z,66.90
2022-12-28T08:31:40.536Z,65.82
2022-12-28T08:34:07.934Z,65.14
2022-12-28T08:36:34.465Z,64.36
2022-12-28T08:39:01.192Z,61.94
2022-12-28T08:41:27.996Z,59.83
2022-12-28T08:43:54.466Z,59.27
2022-12-28T08:46:28.215Z,57.12
2022-12-28T08:48:55.312Z,57.41
2022-12-28T08:51:21.774Z,54.75
2022-12-28T08:53:48.357Z,53.87
2022-12-28T08:56:25.178Z,54.60
2022-12-28T08:58:51.737Z,54.23
2022-12-28T09:01:22.294Z,53.14
2022-12-28T09:03:49.862Z,49.07
2022-12-28T09:06:18.193Z,49.39
2022-12-28T09:08:56.868Z,49.96
2022-12-28T09:11:31.350Z,49.78
2022-12-28T09:13:57.902Z,50.77
2022-12-28T09:16:26.484Z,49.70
2022-12-28T09:18:53.505Z,50.77
2022-12-28T09:21:20.206Z,51.93
2022-12-28T09:23:46.974Z,53.22
2022-12-28T09:26:14.503Z,54.09
2022-12-28T09:28:44.697Z,55.40
2022-12-28T09:31:11.242Z,56.12
2022-12-28T09:36:43.628Z,57.15
2022-12-28T09:39:12.461Z,57.97
2022-12-28T09:41:48.575Z,58.47
2022-12-28T09:44:18.089Z,59.57
2022-12-28T09:46:51.940Z,59.02
2022-12-28T09:49:18.784Z,59.70
2022-12-28T09:51:55.443Z,60.49
2022-12-28T09:54:22.073Z,60.21
2022-12-28T09:56:48.557Z,59.64
2022-12-28T09:59:19.561Z,60.77
2022-12-28T10:01:46.196Z,60.68
2022-12-28T10:04:12.737Z,60.53
2022-12-28T10:06:40.451Z,60.88
2022-12-28T10:09:21.942Z,60.78
2022-12-28T10:11:48.404Z,61.70
2022-12-28T10:14:21.051Z,62.16
2022-12-28T10:16:48.883Z,61.75
2022-12-28T10:19:19.258Z,62.03
2022-12-28T10:21:45.901Z,61.38
2022-12-28T10:24:30.759Z,62.53
2022-12-28T10:26:59.014Z,63.09
2022-12-28T10:29:26.211Z,62.63
2022-12-28T10:32:12.711Z,62.20
2022-12-28T10:34:46.339Z,61.86
2022-12-28T10:37:16.279Z,62.30
2022-12-28T10:39:49.914Z,61.74
2022-12-28T10:42:31.702Z,61.19
2022-12-28T10:45:02.605Z,61.08
2022-12-28T10:47:30.664Z,60.71
2022-12-28T10:50:35.543Z,60.23
2022-12-28T10:52:43.685Z,60.45
2022-12-28T10:55:45.510Z,60.13
2022-12-28T10:58:33.236Z,62.39
2022-12-28T11:01:08.124Z,61.76
2022-12-28T11:03:36.915Z,61.02
2022-12-28T11:06:13.877Z,61.21
2022-12-28T11:08:40.548Z,61.42
2022-12-28T11:11:07.319Z,61.28
2022-12-28T11:13:33.805Z,61.76
2022-12-28T11:16:00.427Z,61.08
2022-12-28T11:18:26.889Z,60.80
2022-12-28T11:20:53.655Z,61.09
2022-12-28T11:23:26.565Z,60.74
2022-12-28T11:25:53.186Z,61.23
2022-12-28T11:28:20.237Z,60.58
2022-12-28T11:30:49.046Z,60.84
2022-12-28T11:33:34.243Z,59.91
2022-12-28T11:36:02.536Z,60.28
2022-12-28T11:38:45.221Z,59.84
2022-12-28T11:41:12.711Z,59.25
2022-12-28T11:43:40.218Z,60.19
2022-12-28T11:46:06.711Z,60.16
2022-12-28T11:48:45.106Z,60.86
2022-12-28T11:51:18.822Z,61.22
2022-12-28T11:53:45.331Z,61.39
2022-12-28T11:56:11.745Z,60.74
2022-12-28T11:58:41.256Z,61.14
2022-12-28T12:01:11.346Z,60.26
2022-12-28T12:04:01.064Z,60.89
2022-12-28T12:06:43.091Z,61.57
2022-12-28T12:09:21.652Z,61.32
2022-12-28T12:11:48.562Z,60.24
2022-12-28T12:14:15.652Z,60.50
2022-12-28T12:16:52.206Z,60.65
2022-12-28T12:19:28.866Z,61.03
2022-12-28T12:22:12.858Z,62.28
2022-12-28T12:24:49.945Z,60.50
2022-12-28T12:27:18.907Z,59.61
2022-12-28T12:29:47.082Z,60.13
2022-12-28T12:32:13.508Z,59.40
2022-12-28T12:34:44.870Z,60.14
2022-12-28T12:37:30.166Z,59.30
2022-12-28T12:40:11.951Z,58.72
2022-12-28T12:42:38.498Z,58.31
2022-12-28T12:45:23.730Z,58.98
2022-12-28T12:48:00.279Z,59.72
2022-12-28T12:50:49.262Z,59.06
2022-12-28T12:53:15.669Z,59.05
2022-12-28T12:55:45.198Z,58.28
2022-12-28T12:58:20.864Z,59.04
2022-12-28T13:01:06.124Z,59.40
2022-12-28T13:03:34.275Z,59.62
2022-12-28T13:06:00.935Z,59.12
2022-12-28T13:08:50.777Z,59.09
2022-12-28T13:11:17.396Z,59.49
2022-12-28T13:13:44.557Z,58.15
2022-12-28T13:16:11.680Z,58.23
2022-12-28T13:18:46.062Z,57.84
2022-12-28T13:21:16.881Z,58.70
2022-12-28T13:23:43.796Z,58.87
2022-12-28T13:26:10.235Z,58.68
2022-12-28T13:28:36.780Z,59.00
2022-12-28T13:31:08.600Z,58.74
2022-12-28T13:33:35.126Z,59.23
2022-12-28T13:36:19.516Z,58.91
2022-12-28T13:38:46.254Z,59.09
2022-12-28T13:41:20.047Z,59.14
2022-12-28T13:43:46.579Z,58.88
2022-12-28T13:46:13.383Z,59.68
2022-12-28T13:48:40.930Z,59.78
2022-12-28T13:51:10.985Z,59.92
2022-12-28T13:53:37.494Z,60.01
2022-12-28T13:56:04.673Z,60.07
2022-12-28T13:58:35.581Z,60.24
2022-12-28T14:01:03.351Z,59.99
2022-12-28T14:03:34.556Z,60.65
2022-12-28T14:06:04.097Z,60.53
2022-12-28T14:08:33.145Z,59.76
2022-12-28T14:10:59.610Z,60.48
2022-12-28T14:13:26.071Z,60.91
2022-12-28T14:15:52.691Z,61.58
2022-12-28T14:18:19.507Z,61.59
2022-12-28T14:20:49.607Z,61.49
2022-12-28T14:23:22.976Z,62.06
2022-12-28T14:25:49.576Z,61.46
2022-12-28T14:28:21.143Z,61.89
2022-12-28T14:30:51.195Z,61.81
2022-12-28T14:33:27.472Z,61.69
2022-12-28T14:35:56.477Z,62.40
2022-12-28T14:38:23.600Z,62.32
2022-12-28T14:40:53.978Z,62.97
2022-12-28T14:43:24.724Z,62.23
2022-12-28T14:46:06.739Z,63.26
2022-12-28T14:48:38.207Z,63.44
2022-12-28T14:51:05.801Z,62.96
2022-12-28T14:53:32.237Z,62.70
2022-12-28T14:56:25.157Z,63.75
2022-12-28T14:58:52.894Z,63.66
2022-12-28T15:01:21.234Z,63.25
2022-12-28T15:03:57.478Z,63.22
2022-12-28T15:06:27.684Z,64.02
2022-12-28T15:08:55.649Z,64.08
2022-12-28T15:11:23.092Z,63.94
2022-12-28T15:13:49.637Z,63.89
2022-12-28T15:16:17.905Z,63.78
2022-12-28T15:18:47.542Z,64.47
2022-12-28T15:21:14.553Z,64.05
2022-12-28T15:23:41.069Z,64.52
2022-12-28T15:26:15.145Z,65.24
2022-12-28T15:28:54.028Z,65.36
2022-12-28T15:31:20.790Z,65.03
2022-12-28T15:33:47.394Z,65.45
2022-12-28T15:36:17.658Z,65.29
2022-12-28T15:38:44.988Z,65.31
2022-12-28T15:41:31.248Z,64.91
2022-12-28T15:43:57.746Z,65.28
2022-12-28T15:46:24.234Z,65.63
2022-12-28T15:48:50.805Z,65.94
2022-12-28T15:51:17.909Z,66.20
2022-12-28T15:53:44.619Z,66.46
2022-12-28T15:56:24.479Z,66.01
2022-12-28T15:58:54.867Z,66.61
2022-12-28T16:01:22.021Z,66.75
2022-12-28T16:03:49.394Z,66.53
2022-12-28T16:06:16.073Z,66.78
2022-12-28T16:08:42.676Z,67.11
2022-12-28T16:11:29.740Z,66.78
2022-12-28T16:14:16.633Z,66.73
2022-12-28T16:16:43.916Z,66.60
2022-12-28T16:19:11.555Z,66.71
2022-12-28T16:21:39.506Z,66.35
2022-12-28T16:24:06.974Z,66.67
2022-12-28T16:26:33.468Z,66.69
2022-12-28T16:29:00.466Z,66.23
2022-12-28T16:31:29.230Z,66.26
2022-12-28T16:34:03.082Z,66.55
2022-12-28T16:36:29.976Z,66.49
2022-12-28T16:38:56.756Z,66.69
2022-12-28T16:41:23.336Z,66.68
2022-12-28T16:43:49.906Z,65.86
2022-12-28T16:46:16.399Z,66.52
2022-12-28T16:48:43.111Z,66.29
2022-12-28T16:51:09.688Z,66.25
2022-12-28T16:53:36.522Z,66.37
2022-12-28T16:56:03.750Z,66.05
2022-12-28T16:58:30.414Z,66.59
2022-12-28T17:00:57.287Z,65.77
2022-12-28T17:03:23.987Z,66.30
2022-12-28T17:05:50.887Z,66.34
2022-12-28T17:08:17.558Z,66.38
2022-12-28T17:10:44.470Z,66.69
2022-12-28T17:13:11.055Z,67.04
2022-12-28T17:15:45.966Z,66.19
2022-12-28T17:18:13.013Z,66.14
2022-12-28T17:20:39.595Z,66.71
2022-12-28T17:23:06.202Z,66.21
2022-12-28T17:25:33.181Z,65.93
2022-12-28T17:27:59.865Z,65.75
2022-12-28T17:30:26.643Z,66.05
2022-12-28T17:32:53.168Z,66.02
2022-12-28T17:35:19.632Z,66.01
2022-12-28T17:37:46.163Z,65.87
2022-12-28T17:40:12.741Z,65.40
2022-12-28T17:42:39.249Z,65.61
2022-12-28T17:45:11.151Z,65.47
2022-12-28T17:47:38.432Z,64.81
2022-12-28T17:50:05.200Z,64.97
2022-12-28T17:52:31.673Z,64.82
2022-12-28T17:54:58.161Z,65.04
2022-12-28T17:57:24.640Z,64.87
2022-12-28T17:59:51.182Z,64.75
2022-12-28T18:02:17.765Z,64.80
2022-12-28T18:04:44.467Z,64.41
2022-12-28T18:07:10.902Z,64.49
2022-12-28T18:09:37.348Z,63.86
2022-12-28T18:12:03.881Z,63.61
2022-12-28T18:14:30.331Z,63.42
2022-12-28T18:16:57.117Z,63.45
2022-12-28T18:19:23.874Z,63.72
2022-12-28T18:21:50.357Z,63.10
2022-12-28T18:24:18.067Z,62.73
2022-12-28T18:26:44.642Z,62.77
2022-12-28T18:29:11.160Z,62.58
2022-12-28T18:31:37.717Z,62.28
2022-12-28T18:34:05.150Z,62.55
2022-12-28T18:36:31.581Z,61.84
2022-12-28T18:38:58.051Z,61.91
2022-12-28T18:41:27.702Z,61.68
2022-12-28T18:44:00.219Z,61.81
2022-12-28T18:46:28.894Z,61.18
2022-12-28T18:48:56.954Z,60.86
2022-12-28T18:51:26.760Z,61.58
2022-12-28T18:53:53.535Z,61.25
2022-12-28T18:56:20.218Z,61.11
2022-12-28T18:58:50.351Z,61.37
2022-12-28T19:02:03.958Z,61.55
2022-12-28T19:04:05.787Z,61.44
2022-12-28T19:06:32.820Z,61.57
2022-12-28T19:08:59.912Z,60.49
2022-12-28T19:11:26.559Z,60.32
2022-12-28T19:13:52.983Z,60.83
2022-12-28T19:16:23.206Z,60.79
2022-12-28T19:18:55.210Z,60.75
2022-12-28T19:21:53.640Z,60.93
2022-12-28T19:24:23.636Z,60.34
2022-12-28T19:26:50.105Z,60.79
2022-12-28T19:29:16.807Z,60.54
2022-12-28T19:31:43.569Z,60.47
2022-12-28T19:34:10.028Z,60.38
2022-12-28T19:36:36.508Z,60.69
2022-12-28T19:39:03.103Z,60.71
2022-12-28T19:41:29.651Z,60.71
2022-12-28T19:43:56.398Z,60.66
2022-12-28T19:46:30.793Z,60.54
2022-12-28T19:48:58.337Z,60.69
2022-12-28T19:51:30.732Z,60.40
2022-12-28T19:53:58.407Z,60.78
2022-12-28T19:56:25.054Z,59.96
2022-12-28T19:58:51.665Z,60.94
2022-12-28T20:01:22.205Z,60.30
2022-12-28T20:03:48.896Z,60.40
2022-12-28T20:06:18.415Z,60.37
2022-12-28T20:08:45.626Z,60.01
2022-12-28T20:11:12.147Z,60.66
2022-12-28T20:13:38.703Z,59.22
2022-12-28T20:16:05.358Z,60.02
2022-12-28T20:18:32.036Z,59.70
2022-12-28T20:21:19.287Z,59.50
2022-12-28T20:23:48.119Z,59.37
2022-12-28T20:26:14.551Z,59.48
2022-12-28T20:28:41.006Z,59.99
2022-12-28T20:31:08.156Z,60.53
2022-12-28T20:33:35.159Z,60.51
2022-12-28T20:36:02.490Z,60.40
2022-12-28T20:38:31.930Z,60.54
2022-12-28T20:41:05.204Z,60.57
2022-12-28T20:43:31.862Z,60.46
2022-12-28T20:45:58.335Z,60.23
2022-12-28T20:48:27.013Z,60.15
2022-12-28T20:51:00.049Z,61.21
2022-12-28T20:53:27.220Z,60.87
2022-12-28T20:55:53.759Z,61.51
2022-12-28T20:58:20.332Z,61.29
2022-12-28T21:00:46.892Z,61.89
2022-12-28T21:03:13.376Z,62.19
2022-12-28T21:05:39.901Z,61.98
2022-12-28T21:08:06.444Z,61.71
2022-12-28T21:10:32.915Z,61.61
2022-12-28T21:12:59.522Z,61.55
2022-12-28T21:15:26.157Z,61.09
2022-12-28T21:17:52.771Z,61.65
2022-12-28T21:20:19.249Z,61.86
2022-12-28T21:22:45.700Z,61.79
2022-12-28T21:25:12.131Z,61.76
2022-12-28T21:27:38.599Z,61.76
2022-12-28T21:30:05.346Z,61.20
2022-12-28T21:32:31.825Z,61.10
2022-12-28T21:34:58.561Z,61.67
2022-12-28T21:37:34.307Z,61.56
2022-12-28T21:40:01.507Z,61.81
2022-12-28T21:42:27.963Z,62.37
2022-12-28T21:44:54.465Z,62.34
2022-12-28T21:47:20.894Z,62.40
2022-12-28T21:49:47.382Z,62.89
2022-12-28T21:52:14.067Z,62.78
2022-12-28T21:54:40.659Z,62.85
2022-12-28T21:57:07.205Z,63.08
2022-12-28T21:59:33.689Z,62.33
2022-12-28T22:02:19.302Z,62.53
2022-12-28T22:05:04.712Z,62.96
2022-12-28T22:07:31.429Z,62.43
2022-12-28T22:10:16.564Z,62.76
2022-12-28T22:12:43.239Z,62.42
2022-12-28T22:15:38.088Z,62.80
2022-12-28T22:18:05.404Z,62.48
2022-12-28T22:20:31.932Z,62.61
2022-12-28T22:22:59.638Z,62.81
2022-12-28T22:25:26.458Z,62.82
2022-12-28T22:27:53.074Z,62.50
2022-12-28T22:30:19.730Z,62.90
2022-12-28T22:32:46.236Z,62.43
2022-12-28T22:35:12.881Z,62.71
2022-12-28T22:37:39.477Z,63.11
2022-12-28T22:40:06.159Z,63.32
2022-12-28T22:42:32.786Z,62.52
2022-12-28T22:44:59.571Z,63.04
2022-12-28T22:47:34.232Z,63.20
2022-12-28T22:50:00.691Z,62.58
2022-12-28T22:52:27.229Z,62.67
2022-12-28T22:54:53.698Z,62.58
2022-12-28T22:57:20.261Z,62.59
2022-12-28T22:59:46.815Z,61.96
2022-12-28T23:02:13.543Z,61.83
2022-12-28T23:04:40.245Z,62.31
2022-12-28T23:07:11.805Z,62.51
2022-12-28T23:09:38.310Z,63.00
2022-12-28T23:12:04.846Z,62.41
2022-12-28T23:14:49.885Z,62.58
2022-12-28T23:17:16.525Z,62.68
2022-12-28T23:20:01.544Z,62.63
2022-12-28T23:22:47.435Z,62.73
2022-12-28T23:25:33.186Z,62.93
2022-12-28T23:28:00.071Z,62.75
2022-12-28T23:30:26.856Z,63.00
2022-12-28T23:32:53.375Z,62.98
2022-12-28T23:35:20.054Z,62.83
2022-12-28T23:37:46.614Z,62.61
2022-12-28T23:40:13.573Z,62.88
2022-12-28T23:42:40.370Z,62.61
2022-12-28T23:45:07.580Z,61.93
2022-12-28T23:47:34.217Z,62.83
2022-12-28T23:50:00.926Z,62.54
2022-12-28T23:52:27.652Z,62.99
2022-12-28T23:54:54.100Z,62.69
2022-12-28T23:57:21.128Z,62.61
2022-12-28T23:59:47.746Z,62.29
